Liber, Indiana
Current Conditions -  °F | °C
As of 4:53 AM on Monday 22 Dec 2014 (Local Time) from KMIE Reporting Station
Haze Haze  
Wind Chill: 21°   Ceiling: Unl
Heat Index: 28°   Visibility: 6mi
Dew Point: 24°   Wind: 7mph
Humidity: 85%   Direction: 130°SE
Pressure: 30.01"   Gusts: NA
Location:  40.4312°N, 85.0058°W
Report Text: KMIE 220953Z AUTO 13006KT 6SM BR CLR M02/M04 A3001 RMK AO2 SLP167 T10221044
Loading
Personal Weather Stations






























Interactive Weather Map New forecast layout! Learn more

10-Day Weather Forecast

Advertisements
Track Severe Weather on mobile